Time;durP1;ratioP1;P1;durP2;ratioP2;P2;SDS_P1;SDS_P2;PMS_P1;PMS_P2;Temp;Humidity;BMP_temperature;BMP_pressure;BME280_temperature;BME280_humidity;BME280_pressure;Samples;Min_cycle;Max_cycle;Signal;HPM_P1;HPM_P2
2021/07/11 00:01:31;;;;;;;16.13;13.00;;;;;;;21.03;58.88;99764.69;5013032;28;20489;-86
2021/07/11 00:03:59;;;;;;;19.23;14.43;;;;;;;21.02;59.00;99760.31;5014049;28;20046;-86
2021/07/11 00:06:26;;;;;;;16.30;13.07;;;;;;;21.03;59.10;99765.53;5013418;28;20061;-86
2021/07/11 00:08:54;;;;;;;17.08;14.77;;;;;;;21.05;59.16;99763.53;5013134;28;20418;-86
2021/07/11 00:11:36;;;;;;;15.80;14.25;;;;;;;21.03;59.80;99767.34;5017179;28;20052;-86
2021/07/11 00:14:03;;;;;;;19.65;14.55;;;;;;;21.10;59.09;99779.13;5032152;28;20049;-86
2021/07/11 00:16:31;;;;;;;18.83;15.38;;;;;;;21.11;59.24;99774.63;5032478;28;20138;-86
2021/07/11 00:19:06;;;;;;;17.58;15.23;;;;;;;21.09;59.97;99778.28;5049034;28;20132;-86
2021/07/11 00:21:33;;;;;;;21.30;15.93;;;;;;;21.15;59.53;99781.34;5032622;28;20504;-86
2021/07/11 00:24:15;;;;;;;19.23;16.20;;;;;;;21.13;59.83;99781.50;5032089;28;20051;-86
2021/07/11 00:26:41;;;;;;;16.50;14.70;;;;;;;21.19;59.23;99772.81;5031990;28;20057;-86
2021/07/11 00:29:08;;;;;;;17.17;15.45;;;;;;;21.21;59.29;99773.53;5032494;28;20401;-86
2021/07/11 00:31:37;;;;;;;19.83;15.88;;;;;;;21.20;59.64;99769.16;5048571;28;20049;-86
2021/07/11 00:34:04;;;;;;;17.88;15.98;;;;;;;21.24;59.51;99764.34;5048435;28;20076;-86
2021/07/11 00:36:39;;;;;;;19.60;16.38;;;;;;;21.21;60.08;99770.84;5048848;28;20490;-86
2021/07/11 00:39:09;;;;;;;17.33;15.48;;;;;;;21.25;59.94;99767.84;5048751;28;20057;-86
2021/07/11 00:41:40;;;;;;;17.38;14.85;;;;;;;21.26;59.75;99761.50;5048107;28;20053;-86
2021/07/11 00:44:07;;;;;;;20.05;15.38;;;;;;;21.27;59.49;99769.34;5032112;28;20053;-86
2021/07/11 00:46:38;;;;;;;17.48;15.57;;;;;;;21.26;59.75;99767.69;5032052;28;20395;-86
2021/07/11 00:49:06;;;;;;;18.50;16.02;;;;;;;21.27;59.35;99763.19;5032401;28;20410;-86
2021/07/11 00:51:34;;;;;;;16.80;14.70;;;;;;;21.26;59.42;99759.66;5032347;28;20406;-86
2021/07/11 00:54:01;;;;;;;17.45;15.65;;;;;;;21.26;59.36;99764.19;5035716;28;20056;-86
2021/07/11 00:56:28;;;;;;;15.90;14.20;;;;;;;21.24;59.13;99768.84;5052428;28;20139;-86
2021/07/11 00:58:56;;;;;;;16.73;14.93;;;;;;;21.20;59.42;99763.78;5035889;28;20061;-86
2021/07/11 01:02:01;;;;;;;16.98;14.57;;;;;;;21.13;59.88;99760.09;5036175;28;20394;-86
2021/07/11 01:07:33;;;;;;;18.13;16.27;;;;;;;21.13;59.83;99759.22;5037325;28;20409;-86
2021/07/11 01:10:54;;;;;;;21.13;15.63;;;;;;;21.07;59.99;99760.69;4956893;29;20396;-86
2021/07/11 01:13:23;;;;;;;18.30;14.70;;;;;;;21.11;59.33;99755.88;4956647;29;20051;-85
2021/07/11 01:15:53;;;;;;;16.88;15.10;;;;;;;21.06;59.55;99753.66;4956398;29;20062;-85
2021/07/11 01:18:24;;;;;;;19.83;15.73;;;;;;;21.03;59.79;99756.66;4956729;29;20059;-85
2021/07/11 01:21:02;;;;;;;17.45;15.65;;;;;;;20.97;59.67;99755.44;4940701;29;20055;-85
2021/07/11 01:23:49;;;;;;;17.27;15.48;;;;;;;20.92;59.91;99758.59;4954708;28;20419;-84
2021/07/11 01:26:17;;;;;;;20.00;14.50;;;;;;;20.92;59.52;99760.41;4975897;28;20065;-85
2021/07/11 01:28:48;;;;;;;18.17;15.68;;;;;;;20.87;59.77;99752.88;5030644;28;20494;-85
2021/07/11 01:31:17;;;;;;;17.38;14.82;;;;;;;20.83;59.74;99757.63;5052121;28;20068;-85
2021/07/11 01:33:46;;;;;;;26.75;14.90;;;;;;;20.81;59.58;99756.13;5035374;28;20057;-85
2021/07/11 01:36:13;;;;;;;16.83;14.48;;;;;;;20.78;59.59;99764.47;5051292;28;20132;-85
2021/07/11 01:38:41;;;;;;;17.70;14.45;;;;;;;;;;5052330;28;20498;-89
2021/07/11 01:41:12;;;;;;;18.90;15.63;;;;;;;20.70;60.23;99751.84;5035298;28;20052;-86
2021/07/11 01:43:40;;;;;;;18.13;15.25;;;;;;;20.68;59.81;99757.34;5035580;28;20050;-86
2021/07/11 01:46:09;;;;;;;17.15;14.75;;;;;;;20.63;60.21;99756.97;5050898;28;20045;-86
2021/07/11 01:48:38;;;;;;;20.20;16.00;;;;;;;20.60;59.93;99759.97;5034961;28;20069;-86
2021/07/11 01:51:32;;;;;;;16.92;15.07;;;;;;;20.51;60.46;99752.84;5049741;28;20057;-86
2021/07/11 01:53:59;;;;;;;17.75;14.70;;;;;;;20.54;60.09;99757.88;5034873;28;20045;-86
2021/07/11 01:56:28;;;;;;;19.75;15.65;;;;;;;20.49;60.17;99754.84;5051365;28;20059;-86
2021/07/11 01:58:58;;;;;;;22.17;16.30;;;;;;;20.45;60.67;99754.31;5051260;28;20140;-86
2021/07/11 02:01:25;;;;;;;20.25;16.13;;;;;;;20.44;60.25;99755.28;5051499;28;20060;-86
2021/07/11 02:03:51;;;;;;;17.95;14.82;;;;;;;20.41;60.33;99748.41;5034433;28;20042;-86
2021/07/11 02:06:18;;;;;;;17.08;15.27;;;;;;;20.40;60.52;99753.91;5034656;28;20053;-86
2021/07/11 02:08:45;;;;;;;17.88;15.52;;;;;;;20.38;60.49;99742.53;5034880;28;20136;-86
2021/07/11 02:11:14;;;;;;;17.63;15.73;;;;;;;20.36;60.59;99747.19;5051084;28;20059;-86
2021/07/11 02:13:57;;;;;;;21.95;15.57;;;;;;;20.33;61.17;99748.31;5034488;28;20053;-86
2021/07/11 02:16:33;;;;;;;20.90;16.42;;;;;;;20.31;61.43;99742.31;5050890;28;20053;-82
2021/07/11 02:19:00;;;;;;;19.63;16.27;;;;;;;20.31;60.75;99744.97;5034674;28;20053;-89
2021/07/11 02:21:28;;;;;;;19.27;15.18;;;;;;;20.29;60.78;99746.94;5037346;28;20553;-89
2021/07/11 02:23:57;;;;;;;21.38;15.98;;;;;;;20.27;60.97;99741.78;5031095;28;20411;-88
2021/07/11 02:26:25;;;;;;;19.52;16.20;;;;;;;20.28;60.90;99745.28;5030804;28;20054;-89
2021/07/11 02:29:11;;;;;;;22.13;17.05;;;;;;;20.23;61.62;99736.88;5030573;28;20064;-89
2021/07/11 02:31:42;;;;;;;17.90;15.85;;;;;;;20.28;61.34;99747.94;5030882;28;20049;-89
2021/07/11 02:34:13;;;;;;;22.90;16.13;;;;;;;20.29;61.65;99749.63;5030533;28;20053;-89
2021/07/11 02:36:48;;;;;;;17.35;15.45;;;;;;;20.29;61.78;99749.63;5035100;28;20052;-89
2021/07/11 02:39:18;;;;;;;19.10;16.45;;;;;;;20.32;61.73;99743.97;5034017;28;20061;-89
2021/07/11 02:41:53;;;;;;;19.02;16.15;;;;;;;20.34;62.10;99754.53;5034145;28;20100;-89
2021/07/11 02:44:21;;;;;;;20.90;17.25;;;;;;;20.37;61.61;99752.38;5050130;28;20045;-89
2021/07/11 02:46:57;;;;;;;18.65;16.65;;;;;;;20.38;62.05;99761.25;5050158;28;20053;-89
2021/07/11 02:49:28;;;;;;;18.55;16.25;;;;;;;20.43;61.45;99775.00;5033905;28;20053;-89
2021/07/11 02:51:57;;;;;;;17.45;15.38;;;;;;;20.44;61.28;99790.88;5050389;28;20052;-89
2021/07/11 02:54:27;;;;;;;17.85;15.98;;;;;;;20.44;61.44;99795.38;5050146;28;20056;-86
2021/07/11 02:57:04;;;;;;;17.80;15.80;;;;;;;20.39;62.05;99793.19;5050324;28;20054;-86
2021/07/11 02:59:42;;;;;;;16.80;15.00;;;;;;;20.36;61.97;99790.81;5050437;28;20088;-86
2021/07/11 03:02:10;;;;;;;16.70;14.95;;;;;;;20.37;61.51;99795.16;5050417;28;20410;-86
2021/07/11 03:04:40;;;;;;;17.67;15.30;;;;;;;20.34;62.00;99800.81;5047196;28;20053;-86
2021/07/11 03:07:18;;;;;;;18.25;14.65;;;;;;;20.31;62.74;99791.25;5049982;28;20064;-86
2021/07/11 03:09:45;;;;;;;15.48;12.77;;;;;;;20.36;62.11;99792.63;5050059;28;20068;-86
2021/07/11 03:12:15;;;;;;;17.52;15.68;;;;;;;20.37;62.37;99791.66;5049885;28;20053;-82
2021/07/11 03:14:43;;;;;;;16.17;13.43;;;;;;;20.39;62.55;99795.00;5048861;28;20049;-82
2021/07/11 03:17:12;;;;;;;16.42;14.68;;;;;;;20.41;62.67;99793.84;5049565;28;20053;-82
2021/07/11 03:19:43;;;;;;;16.65;14.52;;;;;;;20.44;63.00;99788.22;5050236;28;20057;-82
2021/07/11 03:22:10;;;;;;;23.13;15.25;;;;;;;20.49;62.51;99786.91;5049827;28;20059;-82
2021/07/11 03:24:37;;;;;;;21.20;15.70;;;;;;;20.52;62.58;99783.97;5033650;28;20517;-81
2021/07/11 03:27:04;;;;;;;16.77;14.98;;;;;;;20.54;62.81;99788.16;5049922;28;20127;-81
2021/07/11 03:29:41;;;;;;;16.67;14.75;;;;;;;20.54;63.09;99784.63;5049456;28;20063;-82
2021/07/11 03:32:10;;;;;;;16.60;14.57;;;;;;;20.59;62.52;99797.56;5049681;28;20067;-81
2021/07/11 03:34:39;;;;;;;19.80;15.82;;;;;;;20.61;62.93;99795.56;5032977;28;20379;-82
2021/07/11 03:37:09;;;;;;;20.52;15.63;;;;;;;20.61;62.67;99791.06;5043611;28;20137;-81
2021/07/11 03:39:46;;;;;;;19.05;14.63;;;;;;;20.60;62.89;99794.75;5029730;28;20049;-82
2021/07/11 03:42:15;;;;;;;18.23;14.63;;;;;;;20.62;62.86;99792.72;5029533;28;20060;-81
2021/07/11 03:44:58;;;;;;;24.00;14.18;;;;;;;20.58;63.34;99794.03;5029247;28;20140;-81
2021/07/11 03:47:32;;;;;;;16.92;15.13;;;;;;;20.61;62.90;99799.09;5029335;28;20058;-82
2021/07/11 03:50:01;;;;;;;17.05;15.25;;;;;;;20.61;62.91;99793.75;5029524;28;20062;-82
2021/07/11 03:52:30;;;;;;;20.75;14.98;;;;;;;20.60;63.27;99800.09;5029259;28;20053;-82
2021/07/11 03:55:00;;;;;;;22.58;15.00;;;;;;;20.63;63.20;99793.59;5030346;28;20053;-82
2021/07/11 03:57:31;;;;;;;19.50;14.77;;;;;;;20.62;63.36;99803.44;5029775;28;20514;-82
2021/07/11 04:00:00;;;;;;;18.85;15.13;;;;;;;20.65;63.10;99805.81;5029377;28;20380;-82
2021/07/11 04:02:28;;;;;;;18.55;14.38;;;;;;;20.65;63.29;99797.78;5029007;28;20064;-82
2021/07/11 04:04:57;;;;;;;20.20;16.30;;;;;;;20.67;63.12;99798.47;5029376;28;20046;-82
2021/07/11 04:07:26;;;;;;;17.33;15.38;;;;;;;20.69;63.52;99804.50;5012717;28;20053;-82
2021/07/11 04:09:56;;;;;;;16.70;15.07;;;;;;;20.68;63.63;99808.16;5033577;28;20395;-82
2021/07/11 04:12:23;;;;;;;19.60;14.88;;;;;;;20.70;63.31;99808.88;5034142;28;20403;-82
2021/07/11 04:14:51;;;;;;;19.33;14.93;;;;;;;20.72;63.29;99818.56;5015751;28;20049;-82
2021/07/11 04:17:21;;;;;;;14.90;13.40;;;;;;;20.72;63.47;99810.53;5032626;28;20057;-82
2021/07/11 04:19:49;;;;;;;16.33;14.43;;;;;;;;;;5032602;28;20053;-82
2021/07/11 04:22:22;;;;;;;19.42;14.93;;;;;;;20.73;63.75;99823.75;5049747;28;20057;-81
2021/07/11 04:24:50;;;;;;;17.98;14.30;;;;;;;20.75;63.08;99823.63;5049035;28;20050;-81
2021/07/11 04:27:18;;;;;;;16.85;15.05;;;;;;;20.75;63.23;99815.59;5032217;28;20405;-82
2021/07/11 04:29:49;;;;;;;16.20;14.50;;;;;;;20.74;63.77;99821.94;5032347;28;20053;-81
2021/07/11 04:32:16;;;;;;;17.65;13.40;;;;;;;;;;5048931;28;20531;-82
2021/07/11 04:34:43;;;;;;;17.73;13.73;;;;;;;20.75;63.30;99818.25;5032286;28;20053;-82
2021/07/11 04:37:20;;;;;;;16.02;14.43;;;;;;;20.70;64.11;99810.69;5032152;28;20059;-82
2021/07/11 04:39:46;;;;;;;17.10;15.05;;;;;;;;;;5032127;28;20049;-82
2021/07/11 04:42:13;;;;;;;14.32;12.90;;;;;;;;;;5032082;28;20061;-82
2021/07/11 04:44:44;;;;;;;16.58;14.68;;;;;;;20.74;63.68;99819.25;5047022;28;20056;-81
2021/07/11 04:47:13;;;;;;;20.98;14.85;;;;;;;20.73;63.53;99813.06;5048534;28;20054;-82
2021/07/11 04:49:41;;;;;;;15.65;12.68;;;;;;;20.74;63.62;99811.25;5048565;28;20064;-81
2021/07/11 04:52:08;;;;;;;20.63;15.15;;;;;;;20.74;63.72;99811.25;5048792;28;20383;-82
2021/07/11 04:54:35;;;;;;;14.90;13.20;;;;;;;20.75;63.68;99802.22;5048346;28;20049;-81
2021/07/11 04:57:04;;;;;;;14.80;13.27;;;;;;;20.74;64.13;99805.88;5048395;28;20059;-82
2021/07/11 04:59:31;;;;;;;13.93;12.40;;;;;;;20.75;64.01;99796.88;5046817;28;20060;-82
2021/07/11 05:01:58;;;;;;;17.35;14.60;;;;;;;20.75;63.96;99796.88;5032058;28;20049;-82
2021/07/11 05:04:25;;;;;;;16.77;14.88;;;;;;;;;;5031993;28;20049;-82
2021/07/11 05:06:52;;;;;;;15.85;14.18;;;;;;;20.75;64.24;99802.22;5031995;28;20172;-81
2021/07/11 05:09:19;;;;;;;18.88;14.65;;;;;;;20.75;63.98;99799.53;5032091;28;20075;-81
2021/07/11 05:11:50;;;;;;;15.02;13.43;;;;;;;20.74;64.56;99797.88;5032295;28;20069;-81
2021/07/11 05:14:16;;;;;;;16.00;14.32;;;;;;;20.75;63.85;99795.00;5031612;28;20052;-81
2021/07/11 05:16:43;;;;;;;14.50;13.00;;;;;;;20.75;63.98;99802.22;5031512;28;20052;-82
2021/07/11 05:19:21;;;;;;;15.63;13.60;;;;;;;20.72;64.52;99805.19;5031894;28;20054;-82
2021/07/11 05:21:48;;;;;;;16.10;14.45;;;;;;;20.76;64.01;99796.72;5031691;28;20054;-81
2021/07/11 05:24:15;;;;;;;19.83;16.65;;;;;;;20.77;64.00;99800.22;5048372;28;20067;-82
2021/07/11 05:26:42;;;;;;;16.50;14.43;;;;;;;20.76;64.42;99799.41;5032292;28;20053;-82
2021/07/11 05:29:09;;;;;;;18.13;15.57;;;;;;;20.75;64.27;99805.72;5048235;28;20058;-82
2021/07/11 05:31:39;;;;;;;16.58;13.93;;;;;;;20.74;64.57;99805.88;5035093;28;20425;-82
2021/07/11 05:34:05;;;;;;;19.35;16.58;;;;;;;20.77;64.29;99805.56;5027983;28;20050;-82
2021/07/11 05:36:32;;;;;;;21.83;16.33;;;;;;;20.77;64.32;99806.41;5028458;28;20054;-82
2021/07/11 05:38:59;;;;;;;18.95;17.00;;;;;;;20.77;64.55;99800.22;5030566;28;20508;-81
2021/07/11 05:41:26;;;;;;;21.70;16.25;;;;;;;20.79;64.27;99803.59;5016860;28;20465;-82
2021/07/11 05:43:52;;;;;;;21.52;17.30;;;;;;;20.78;64.52;99797.38;5031396;28;20052;-82
2021/07/11 05:46:19;;;;;;;22.15;16.73;;;;;;;20.78;64.41;99807.28;5049082;28;20049;-82
2021/07/11 05:48:48;;;;;;;21.52;17.27;;;;;;;20.77;64.52;99810.91;5035160;28;20115;-82
2021/07/11 05:51:15;;;;;;;17.92;16.00;;;;;;;20.77;64.11;99810.91;5051483;28;20057;-81
2021/07/11 05:53:42;;;;;;;18.63;16.05;;;;;;;20.76;64.41;99810.09;5034572;28;20046;-82
2021/07/11 05:56:08;;;;;;;18.70;15.60;;;;;;;20.77;64.55;99813.59;5035063;28;20061;-81
2021/07/11 05:58:35;;;;;;;19.70;16.42;;;;;;;20.77;64.57;99811.75;5034781;28;20053;-82
2021/07/11 06:01:03;;;;;;;20.50;16.83;;;;;;;20.78;64.62;99817.97;5031636;28;20053;-82
2021/07/11 06:03:30;;;;;;;16.85;15.07;;;;;;;20.80;64.53;99816.81;5031265;28;20046;-82
2021/07/11 06:05:56;;;;;;;20.27;16.50;;;;;;;20.83;64.45;99815.66;5034288;28;20462;-82
2021/07/11 06:08:23;;;;;;;20.35;16.67;;;;;;;20.87;64.81;99822.44;5031556;28;20470;-82
2021/07/11 06:11:27;;;;;;;20.40;16.90;;;;;;;20.85;65.14;99829.72;5031396;28;20057;-91
2021/07/11 06:13:53;;;;;;;;;;;;;;;20.93;64.34;99832.50;5028116;28;20056;-90
2021/07/11 06:16:20;;;;;;;17.58;14.80;;;;;;;21.02;64.15;99832.56;5051252;28;20003;-90
2021/07/11 06:18:51;;;;;;;21.38;16.98;;;;;;;21.02;64.57;99841.47;5034953;28;20053;-91
2021/07/11 06:21:18;;;;;;;19.77;16.55;;;;;;;21.05;64.59;99835.78;5034540;28;20054;-91
2021/07/11 06:23:44;;;;;;;26.08;16.48;;;;;;;21.08;64.36;99830.13;5034579;28;20398;-91
2021/07/11 06:26:19;;;;;;;17.98;16.10;;;;;;;21.10;64.91;99832.66;5034461;28;20049;-91
2021/07/11 06:28:46;;;;;;;19.17;15.60;;;;;;;21.18;64.67;99834.53;5034389;28;20053;-90
2021/07/11 06:31:13;;;;;;;19.92;16.70;;;;;;;21.22;65.02;99834.09;5034837;28;20402;-90
2021/07/11 06:33:43;;;;;;;18.92;16.65;;;;;;;21.27;65.12;99832.78;5034185;28;20140;-90
2021/07/11 06:36:10;;;;;;;17.63;15.80;;;;;;;21.33;64.81;99832.16;5034581;28;20549;-90
2021/07/11 06:38:36;;;;;;;16.92;14.82;;;;;;;21.37;64.64;99836.19;5034415;28;20053;-91
2021/07/11 06:41:03;;;;;;;19.40;17.40;;;;;;;21.41;64.92;99837.56;5050602;28;20053;-90
2021/07/11 06:43:35;;;;;;;17.55;15.75;;;;;;;21.45;65.16;99835.41;5035046;28;20068;-91
2021/07/11 06:46:03;;;;;;;18.70;14.32;;;;;;;21.51;64.56;99832.13;5050364;28;20060;-90
2021/07/11 06:48:31;;;;;;;17.58;15.63;;;;;;;21.54;64.45;99839.84;5050850;28;20053;-91
2021/07/11 06:50:58;;;;;;;15.52;13.70;;;;;;;21.57;64.31;99846.72;5030579;28;20124;-90
2021/07/11 06:53:38;;;;;;;17.63;15.77;;;;;;;21.56;64.84;99853.91;5044180;28;20136;-90
2021/07/11 06:56:05;;;;;;;16.85;15.13;;;;;;;21.61;64.38;99848.91;5050696;28;20058;-91
2021/07/11 06:58:32;;;;;;;15.70;13.88;;;;;;;21.64;64.29;99845.06;5034163;28;20494;-92
2021/07/11 07:00:59;;;;;;;14.70;12.90;;;;;;;21.67;64.43;99855.47;5050700;28;20108;-91
2021/07/11 07:03:26;;;;;;;13.95;12.55;;;;;;;21.70;64.26;99857.00;5034038;28;20402;-91
2021/07/11 07:06:02;;;;;;;15.18;12.35;;;;;;;21.70;64.38;99854.31;5033738;28;20057;-91
2021/07/11 07:08:28;;;;;;;15.00;13.40;;;;;;;21.77;64.36;99851.88;5033507;28;20132;-92
2021/07/11 07:14:20;;;;;;;16.88;13.27;;;;;;;21.84;64.36;99850.25;5034555;28;20136;-92
2021/07/11 07:16:47;;;;;;;12.40;11.13;;;;;;;21.88;64.35;99848.94;5033692;28;20506;-91
2021/07/11 07:19:57;;;;;;;14.32;12.93;;;;;;;21.88;64.47;99846.25;5033733;28;20053;-91
2021/07/11 07:22:23;;;;;;;18.45;13.20;;;;;;;21.99;64.09;99847.81;5050197;28;20405;-91
2021/07/11 07:24:50;;;;;;;16.45;14.75;;;;;;;22.02;63.83;99854.69;5049743;28;20049;-91
2021/07/11 07:27:17;;;;;;;14.50;13.05;;;;;;;22.03;63.79;99853.69;5033706;28;20079;-91
2021/07/11 07:29:43;;;;;;;18.27;14.63;;;;;;;22.04;64.04;99853.53;5049968;28;20395;-90
2021/07/11 07:32:12;;;;;;;15.98;13.38;;;;;;;22.06;64.23;99856.91;5042499;28;20058;-90
2021/07/11 07:34:39;;;;;;;15.85;14.25;;;;;;;22.09;63.88;99858.44;5029910;28;20402;-91
2021/07/11 07:37:29;;;;;;;13.70;12.32;;;;;;;22.09;64.55;99861.09;5030019;28;20058;-91
2021/07/11 07:39:56;;;;;;;14.65;13.10;;;;;;;22.18;63.96;99854.78;5029982;28;20046;-91
2021/07/11 07:42:22;;;;;;;14.75;10.70;;;;;;;22.23;64.26;99857.81;5029586;28;20058;-91
2021/07/11 07:44:53;;;;;;;14.60;13.10;;;;;;;22.29;64.40;99859.00;5015025;28;20483;-91
2021/07/11 07:47:20;;;;;;;12.48;10.95;;;;;;;22.36;64.22;99869.94;5033089;28;20077;-91
2021/07/11 07:49:47;;;;;;;12.57;11.38;;;;;;;22.44;63.91;99869.09;5033256;28;20466;-90
2021/07/11 07:52:16;;;;;;;13.38;12.07;;;;;;;22.48;63.95;99868.63;5049487;28;20050;-91
2021/07/11 07:54:42;;;;;;;13.38;11.98;;;;;;;22.57;64.06;99882.09;5049629;28;20046;-91
2021/07/11 07:57:09;;;;;;;13.13;11.85;;;;;;;22.63;63.79;99881.44;5049360;28;20057;-92
2021/07/11 07:59:42;;;;;;;13.63;12.23;;;;;;;22.65;64.03;99876.72;5049505;28;20053;-91
2021/07/11 08:02:09;;;;;;;12.25;11.05;;;;;;;22.73;63.73;99873.25;5029406;28;20757;-92
2021/07/11 08:04:35;;;;;;;13.15;11.82;;;;;;;22.78;63.71;99876.28;5013446;28;20069;-91
2021/07/11 08:07:30;;;;;;;14.18;12.02;;;;;;;22.77;63.62;99879.97;5013970;28;20050;-92
2021/07/11 08:09:57;;;;;;;13.65;11.45;;;;;;;22.87;63.24;99877.13;5029543;28;20056;-92
2021/07/11 08:12:24;;;;;;;12.23;10.48;;;;;;;22.90;63.34;99872.28;5012820;28;20057;-89
2021/07/11 08:14:51;;;;;;;13.70;11.25;;;;;;;22.95;63.43;99870.94;5021463;28;20045;-90
2021/07/11 08:17:17;;;;;;;12.43;11.13;;;;;;;23.01;63.80;99879.16;5048912;28;20064;-90
2021/07/11 08:20:08;;;;;;;11.27;10.18;;;;;;;23.03;63.40;99874.44;5032266;28;20049;-90
2021/07/11 08:22:35;;;;;;;11.38;10.27;;;;;;;23.18;63.55;99879.19;5032395;28;20045;-89
2021/07/11 08:25:02;;;;;;;11.10;10.02;;;;;;;23.24;63.36;99885.69;5032192;28;20060;-90
2021/07/11 08:27:41;;;;;;;11.55;10.38;;;;;;;23.25;63.45;99882.03;5049032;28;20056;-91
2021/07/11 08:30:10;;;;;;;11.55;10.45;;;;;;;23.35;63.07;99881.88;5032350;28;20055;-82
2021/07/11 08:32:38;;;;;;;11.85;10.48;;;;;;;23.41;62.97;99878.53;5049040;28;20127;-82
2021/07/11 08:35:06;;;;;;;10.75;9.70;;;;;;;23.47;62.92;99885.91;5031917;28;20049;-82
2021/07/11 08:37:33;;;;;;;10.35;9.32;;;;;;;23.54;62.67;99881.53;5032370;28;20140;-83
2021/07/11 08:40:07;;;;;;;11.07;9.98;;;;;;;23.62;63.27;99887.91;5049073;28;20054;-91
2021/07/11 08:42:35;;;;;;;10.85;9.85;;;;;;;23.71;63.31;99884.22;5032527;28;20045;-90
2021/07/11 08:45:03;;;;;;;10.98;9.85;;;;;;;23.79;62.45;99875.28;5032194;28;20049;-91
2021/07/11 08:47:42;;;;;;;9.52;8.63;;;;;;;23.86;62.78;99878.13;5030893;28;20045;-91
2021/07/11 08:50:12;;;;;;;10.13;9.15;;;;;;;23.99;63.81;99878.41;5047440;28;20167;-91
2021/07/11 08:52:50;;;;;;;9.77;8.70;;;;;;;24.12;62.94;99875.22;5033124;28;20139;-91
2021/07/11 08:55:24;;;;;;;9.32;8.43;;;;;;;24.32;63.41;99869.41;5047610;28;20100;-91
2021/07/11 08:58:41;;;;;;;9.30;8.40;;;;;;;24.52;62.79;99875.19;5035758;28;20049;-91
2021/07/11 09:01:14;;;;;;;9.05;8.23;;;;;;;24.85;63.02;99869.66;5013689;28;20046;-91
2021/07/11 09:04:15;;;;;;;9.63;8.73;;;;;;;25.07;61.41;99872.53;5013275;28;20449;-91
2021/07/11 09:06:55;;;;;;;8.95;8.05;;;;;;;25.36;62.79;99873.66;5012463;28;20467;-91
2021/07/11 09:09:39;;;;;;;9.50;8.60;;;;;;;25.61;61.50;99868.03;5012346;28;20100;-91
2021/07/11 09:12:09;;;;;;;9.98;8.98;;;;;;;25.82;60.04;99868.34;5031178;28;20056;-91
2021/07/11 09:14:58;;;;;;;9.52;8.32;;;;;;;25.97;59.18;99865.63;5035316;28;20055;-91
2021/07/11 09:17:34;;;;;;;8.90;7.97;;;;;;;26.01;59.24;99867.78;5036009;28;20417;-83
2021/07/11 09:20:06;;;;;;;9.30;8.40;;;;;;;26.05;57.87;99862.03;5035371;28;20132;-83
2021/07/11 09:22:38;;;;;;;8.80;7.75;;;;;;;26.05;57.91;99862.84;5036795;28;20482;-83
2021/07/11 09:25:05;;;;;;;9.30;8.40;;;;;;;26.08;58.23;99865.16;5035121;28;20061;-83
2021/07/11 09:27:34;;;;;;;9.23;8.02;;;;;;;26.08;58.08;99862.47;5035352;28;20053;-84
2021/07/11 09:30:09;;;;;;;9.15;8.10;;;;;;;26.10;57.61;99865.84;5036054;28;20057;-83
2021/07/11 09:32:42;;;;;;;8.05;7.35;;;;;;;26.17;58.41;99863.22;5034978;28;20077;-83
2021/07/11 09:35:21;;;;;;;8.73;7.85;;;;;;;26.20;57.32;99872.81;5035890;28;20071;-83
2021/07/11 09:37:58;;;;;;;7.70;7.00;;;;;;;26.27;57.33;99868.34;5035040;28;20057;-84
2021/07/11 09:40:27;;;;;;;8.15;7.32;;;;;;;26.34;57.03;99876.50;5034828;28;20056;-83
2021/07/11 09:42:56;;;;;;;9.07;8.18;;;;;;;26.36;56.80;99875.31;5034996;28;20132;-86
2021/07/11 09:45:26;;;;;;;9.30;8.00;;;;;;;26.38;56.65;99875.13;5035110;28;20056;-86
2021/07/11 09:48:11;;;;;;;9.57;8.70;;;;;;;26.34;57.08;99885.47;5034908;28;20045;-85
2021/07/11 09:50:38;;;;;;;10.15;9.25;;;;;;;26.40;56.68;99879.28;5050863;28;20096;-86
2021/07/11 09:53:06;;;;;;;9.55;8.55;;;;;;;26.38;57.03;99886.75;5035281;28;20045;-85
2021/07/11 09:55:36;;;;;;;11.05;9.43;;;;;;;26.36;57.01;99882.56;5034591;28;20053;-85
2021/07/11 09:58:11;;;;;;;9.82;8.95;;;;;;;26.34;56.50;99885.47;5034741;28;20053;-85
2021/07/11 10:01:04;;;;;;;10.50;9.45;;;;;;;26.33;57.29;99896.44;5035000;28;20422;-85
2021/07/11 10:03:31;;;;;;;9.38;8.48;;;;;;;26.37;56.85;99882.38;5034888;28;20048;-85
2021/07/11 10:05:58;;;;;;;11.20;9.00;;;;;;;26.36;56.70;99896.91;5034062;28;20053;-86
2021/07/11 10:08:38;;;;;;;9.20;8.32;;;;;;;26.29;56.36;99898.69;5035020;28;20497;-85
2021/07/11 10:11:06;;;;;;;10.55;9.43;;;;;;;26.29;56.24;99901.38;5036279;28;20128;-85
2021/07/11 10:13:33;;;;;;;9.63;8.68;;;;;;;26.26;56.91;99912.53;5034459;28;20057;-85
2021/07/11 10:16:28;;;;;;;10.75;9.73;;;;;;;26.14;56.81;99902.22;5034250;28;20045;-85
2021/07/11 10:18:57;;;;;;;10.32;8.63;;;;;;;26.17;56.86;99897.44;5034372;28;20406;-85
2021/07/11 10:21:29;;;;;;;10.27;8.88;;;;;;;26.12;57.37;99906.94;5034678;28;20517;-85
2021/07/11 10:23:58;;;;;;;10.55;9.55;;;;;;;26.08;56.49;99904.78;5034123;28;20061;-85
2021/07/11 10:26:51;;;;;;;12.80;9.75;;;;;;;26.02;56.85;99926.09;5034707;28;20520;-85
2021/07/11 10:29:24;;;;;;;12.43;10.25;;;;;;;25.98;56.54;99915.88;5034746;28;20049;-85
2021/07/11 10:31:52;;;;;;;;;;;;;;;25.93;57.19;99924.50;5034925;28;20144;-86
2021/07/11 10:34:35;;;;;;;12.55;11.25;;;;;;;25.84;56.59;99931.84;5035791;28;19968;-86
2021/07/11 10:37:18;;;;;;;13.73;12.40;;;;;;;25.70;56.53;99936.19;5030543;28;20054;-86
2021/07/11 10:39:45;;;;;;;20.30;14.35;;;;;;;25.61;56.39;99937.28;5031062;28;20057;-86
2021/07/11 10:42:12;;;;;;;15.68;14.02;;;;;;;25.48;56.15;99932.47;5015587;28;20434;-86
2021/07/11 10:45:21;;;;;;;15.23;13.63;;;;;;;25.29;56.70;99936.50;5030434;28;20486;-86
2021/07/11 10:47:48;;;;;;;14.35;12.85;;;;;;;25.23;57.12;99930.81;5039264;28;20116;-86
2021/07/11 10:50:29;;;;;;;16.65;14.50;;;;;;;25.12;57.80;99931.25;5048272;28;20508;-86
2021/07/11 10:53:31;;;;;;;15.10;13.63;;;;;;;25.09;57.75;99939.69;5050199;28;20084;-86
2021/07/11 10:56:19;;;;;;;15.52;13.93;;;;;;;25.07;57.77;99934.47;5033214;28;20132;-86
2021/07/11 10:58:47;;;;;;;16.15;14.20;;;;;;;25.12;56.72;99939.34;5050236;28;20045;-86
2021/07/11 11:01:16;;;;;;;15.35;13.75;;;;;;;25.09;57.03;99934.28;5033682;28;20045;-86
2021/07/11 11:03:57;;;;;;;16.85;13.98;;;;;;;25.05;57.49;99939.22;5043873;28;20053;-85
2021/07/11 11:06:24;;;;;;;16.73;13.13;;;;;;;25.15;57.95;99935.44;5030710;28;20052;-85
2021/07/11 11:08:51;;;;;;;18.33;13.13;;;;;;;25.27;58.46;99941.25;5030250;28;20061;-86
2021/07/11 11:15:04;;;;;;;13.15;11.57;;;;;;;25.78;59.13;99947.94;5014604;28;20473;-85
2021/07/11 11:17:34;;;;;;;12.68;11.45;;;;;;;26.15;59.25;99935.41;5029955;28;20056;-85
2021/07/11 11:20:12;;;;;;;12.63;11.45;;;;;;;26.56;58.04;99938.66;5032354;28;20065;-85
2021/07/11 11:22:51;;;;;;;13.00;11.18;;;;;;;27.00;57.13;99934.19;5033470;28;20067;-92
2021/07/11 11:25:19;;;;;;;13.00;11.43;;;;;;;27.42;57.01;99929.84;5049834;28;20045;-91
2021/07/11 11:27:51;;;;;;;13.07;11.75;;;;;;;27.83;56.84;99933.72;5050159;28;20474;-92
2021/07/11 11:34:00;;;;;;;10.73;9.65;;;;;;;29.00;54.58;99926.78;5033830;28;20045;-86
2021/07/11 11:36:32;;;;;;;12.55;11.02;;;;;;;29.49;53.31;99926.63;5033572;28;20049;-86
2021/07/11 11:39:05;;;;;;;12.07;10.88;;;;;;;29.99;50.93;99924.50;5013108;28;20046;-86
2021/07/11 11:41:32;;;;;;;10.77;9.77;;;;;;;30.49;52.12;99921.25;5012912;28;20392;-86
2021/07/11 11:44:19;;;;;;;10.27;9.27;;;;;;;30.94;51.67;99906.81;5013551;28;20140;-86
2021/07/11 11:46:49;;;;;;;10.20;9.30;;;;;;;31.39;48.29;99909.66;5013410;28;20049;-86
2021/07/11 11:49:20;;;;;;;9.27;8.40;;;;;;;31.71;47.23;99904.97;5013129;28;20057;-85
2021/07/11 11:52:02;;;;;;;8.77;7.97;;;;;;;31.95;46.35;99909.78;5013084;28;20406;-86
2021/07/11 11:57:55;;;;;;;10.98;9.05;;;;;;;32.46;45.50;99909.63;5033699;28;20059;-84
2021/07/11 12:00:22;;;;;;;9.70;8.77;;;;;;;32.75;45.13;99907.97;5032887;28;20053;-84
2021/07/11 12:02:58;;;;;;;9.00;8.13;;;;;;;32.94;44.33;99910.66;5032594;28;20060;-84